createdAt,value
2019-02-02T00:01:07.538Z,32.40
2019-02-02T00:03:12.990Z,36.60
2019-02-02T00:05:17.759Z,34.43
2019-02-02T00:07:22.579Z,33.83
2019-02-02T00:09:27.576Z,32.10
2019-02-02T00:11:32.421Z,30.57
2019-02-02T00:13:37.707Z,33.20
2019-02-02T00:15:42.648Z,33.50
2019-02-02T00:17:47.559Z,30.10
2019-02-02T00:19:56.052Z,32.70
2019-02-02T00:22:00.934Z,29.37
2019-02-02T00:24:06.283Z,26.97
2019-02-02T00:26:10.998Z,27.27
2019-02-02T00:28:15.817Z,34.07
2019-02-02T00:30:20.774Z,27.67
2019-02-02T00:32:25.485Z,30.20
2019-02-02T00:34:30.576Z,24.67
2019-02-02T00:36:35.279Z,26.53
2019-02-02T00:38:40.147Z,27.43
2019-02-02T00:40:45.236Z,29.67
2019-02-02T00:42:50.337Z,25.17
2019-02-02T00:44:55.146Z,31.70
2019-02-02T00:47:00.279Z,23.90
2019-02-02T00:49:05.255Z,22.13
2019-02-02T00:51:09.984Z,25.30
2019-02-02T00:53:14.708Z,24.60
2019-02-02T00:55:19.680Z,18.80
2019-02-02T00:57:24.948Z,18.40
2019-02-02T00:59:29.756Z,23.47
2019-02-02T01:01:34.511Z,20.07
2019-02-02T01:03:39.253Z,23.97
2019-02-02T01:05:43.985Z,24.33
2019-02-02T01:07:49.239Z,23.53
2019-02-02T01:09:54.008Z,22.63
2019-02-02T01:11:58.763Z,34.07
2019-02-02T01:14:04.381Z,22.70
2019-02-02T01:16:09.184Z,21.17
2019-02-02T01:18:13.905Z,27.63
2019-02-02T01:20:18.994Z,20.87
2019-02-02T01:22:23.754Z,27.13
2019-02-02T01:24:28.479Z,23.50
2019-02-02T01:26:33.292Z,21.60
2019-02-02T01:28:38.085Z,24.17
2019-02-02T01:30:43.251Z,19.63
2019-02-02T01:32:48.690Z,18.10
2019-02-02T01:34:53.822Z,21.53
2019-02-02T01:36:58.575Z,21.63
2019-02-02T01:39:04.296Z,24.13
2019-02-02T01:41:09.093Z,17.57
2019-02-02T01:43:13.831Z,22.23
2019-02-02T01:45:21.242Z,22.53
2019-02-02T01:47:25.977Z,22.47
2019-02-02T01:49:30.823Z,18.73
2019-02-02T01:51:35.634Z,26.90
2019-02-02T01:53:40.672Z,25.10
2019-02-02T01:55:45.431Z,26.33
2019-02-02T01:57:50.176Z,23.37
2019-02-02T01:59:55.161Z,26.17
2019-02-02T02:02:00.033Z,26.97
2019-02-02T02:04:04.771Z,20.40
2019-02-02T02:06:10.080Z,20.90
2019-02-02T02:08:15.691Z,34.13
2019-02-02T02:10:20.682Z,31.50
2019-02-02T02:12:25.836Z,27.83
2019-02-02T02:14:30.620Z,27.90
2019-02-02T02:16:35.523Z,24.60
2019-02-02T02:18:40.343Z,32.23
2019-02-02T02:20:45.103Z,26.50
2019-02-02T02:22:50.600Z,23.83
2019-02-02T02:24:55.427Z,25.47
2019-02-02T02:27:00.202Z,20.53
2019-02-02T02:29:05.744Z,21.57
2019-02-02T02:31:10.762Z,22.67
2019-02-02T02:33:15.552Z,28.53
2019-02-02T02:35:20.608Z,25.00
2019-02-02T02:37:25.371Z,26.33
2019-02-02T02:39:30.468Z,27.03
2019-02-02T02:41:36.228Z,20.13
2019-02-02T02:43:41.093Z,29.63
2019-02-02T02:45:45.943Z,24.53
2019-02-02T02:47:50.935Z,23.47
2019-02-02T02:49:55.776Z,24.07
2019-02-02T02:52:00.830Z,27.93
2019-02-02T02:54:06.128Z,26.80
2019-02-02T02:56:11.404Z,25.40
2019-02-02T02:58:16.115Z,16.83
2019-02-02T03:00:23.450Z,27.10
2019-02-02T03:02:28.971Z,28.93
2019-02-02T03:04:33.759Z,25.13
2019-02-02T03:06:38.517Z,24.10
2019-02-02T03:08:43.660Z,29.97
2019-02-02T03:10:48.426Z,25.43
2019-02-02T03:12:53.906Z,25.00
2019-02-02T03:14:58.691Z,22.80
2019-02-02T03:17:03.466Z,25.70
2019-02-02T03:19:08.489Z,23.83
2019-02-02T03:21:13.273Z,33.73
2019-02-02T03:23:18.022Z,23.47
2019-02-02T03:25:24.342Z,23.03
2019-02-02T03:27:29.087Z,31.80
2019-02-02T03:29:33.863Z,21.33
2019-02-02T03:31:38.730Z,28.00
2019-02-02T03:33:48.286Z,26.40
2019-02-02T03:35:53.203Z,30.30
2019-02-02T03:37:58.082Z,28.33
2019-02-02T03:40:02.866Z,22.30
2019-02-02T03:42:07.844Z,26.80
2019-02-02T03:44:12.659Z,28.17
2019-02-02T03:46:16.037Z,27.80
2019-02-02T03:48:20.984Z,28.20
2019-02-02T03:50:26.066Z,27.57
2019-02-02T03:52:30.921Z,31.07
2019-02-02T03:54:35.845Z,32.17
2019-02-02T03:56:40.759Z,29.13
2019-02-02T03:58:45.631Z,28.67
2019-02-02T04:00:50.523Z,25.73
2019-02-02T04:02:55.461Z,34.47
2019-02-02T04:05:00.939Z,28.90
2019-02-02T04:07:14.289Z,24.80
2019-02-02T04:09:30.082Z,26.53
2019-02-02T04:11:43.308Z,25.27
2019-02-02T04:13:56.291Z,25.37
2019-02-02T04:16:08.183Z,26.90
2019-02-02T04:18:22.975Z,26.80
2019-02-02T04:23:48.486Z,34.13
2019-02-02T04:26:11.722Z,30.80
2019-02-02T04:28:49.420Z,26.70
2019-02-02T04:31:02.771Z,27.30
2019-02-02T04:33:17.226Z,34.80
2019-02-02T04:35:24.301Z,30.90
2019-02-02T04:37:29.709Z,33.90
2019-02-02T04:39:35.253Z,29.00
2019-02-02T04:41:41.926Z,27.40
2019-02-02T04:43:59.937Z,32.77
2019-02-02T04:53:58.126Z,33.93
2019-02-02T04:56:04.722Z,27.93
2019-02-02T04:58:16.948Z,26.63
2019-02-02T05:00:26.880Z,28.93
2019-02-02T05:02:34.536Z,36.67
2019-02-02T05:04:40.654Z,36.20
2019-02-02T05:07:25.562Z,28.53
2019-02-02T05:09:27.434Z,38.17
2019-02-02T05:11:33.699Z,32.50
2019-02-02T05:13:39.224Z,29.60
2019-02-02T05:15:45.065Z,32.73
2019-02-02T05:17:53.363Z,34.73
2019-02-02T05:20:21.839Z,38.90
2019-02-02T05:22:26.873Z,32.20
2019-02-02T05:24:31.648Z,33.70
2019-02-02T05:26:36.480Z,27.60
2019-02-02T05:28:41.292Z,32.67
2019-02-02T05:30:46.381Z,32.73
2019-02-02T05:32:51.612Z,35.53
2019-02-02T05:34:56.401Z,33.83
2019-02-02T05:37:01.225Z,31.43
2019-02-02T05:39:09.158Z,33.47
2019-02-02T05:41:14.031Z,36.70
2019-02-02T05:43:18.808Z,30.80
2019-02-02T05:45:24.109Z,31.97
2019-02-02T05:47:29.326Z,31.80
2019-02-02T05:49:34.147Z,32.57
2019-02-02T05:51:39.288Z,31.57
2019-02-02T05:53:44.678Z,31.90
2019-02-02T05:55:49.835Z,34.30
2019-02-02T05:57:54.645Z,36.13
2019-02-02T05:59:59.587Z,37.43
2019-02-02T06:02:04.470Z,34.47
2019-02-02T06:04:09.717Z,32.80
2019-02-02T06:06:14.643Z,34.33
2019-02-02T06:08:19.799Z,34.63
2019-02-02T06:10:24.792Z,39.10
2019-02-02T06:12:30.165Z,42.03
2019-02-02T06:14:34.976Z,37.37
2019-02-02T06:16:40.242Z,41.53
2019-02-02T06:18:45.057Z,39.00
2019-02-02T06:20:50.515Z,52.07
2019-02-02T06:22:55.512Z,34.73
2019-02-02T06:25:00.449Z,37.27
2019-02-02T06:27:06.040Z,41.77
2019-02-02T06:29:11.838Z,39.93
2019-02-02T06:31:17.133Z,39.93
2019-02-02T06:33:22.835Z,39.53
2019-02-02T06:35:28.279Z,41.50
2019-02-02T06:37:33.733Z,47.40
2019-02-02T06:39:39.814Z,39.00
2019-02-02T06:41:45.343Z,39.23
2019-02-02T06:43:50.926Z,41.50
2019-02-02T06:45:58.697Z,45.00
2019-02-02T06:48:06.324Z,40.80
2019-02-02T06:50:16.836Z,42.07
2019-02-02T06:52:39.538Z,44.87
2019-02-02T06:54:46.618Z,45.07
2019-02-02T06:56:53.267Z,40.20
2019-02-02T06:58:58.178Z,42.50
2019-02-02T07:01:05.004Z,47.33
2019-02-02T07:03:12.271Z,40.73
2019-02-02T07:05:17.247Z,43.37
2019-02-02T07:07:22.136Z,40.13
2019-02-02T07:09:26.935Z,45.27
2019-02-02T07:11:31.734Z,39.80
2019-02-02T07:13:36.916Z,49.60
2019-02-02T07:15:41.725Z,46.40
2019-02-02T07:17:46.545Z,47.80
2019-02-02T07:19:51.613Z,46.20
2019-02-02T07:21:56.619Z,61.00
2019-02-02T07:24:01.664Z,53.00
2019-02-02T07:26:06.661Z,67.23
2019-02-02T07:28:12.104Z,63.73
2019-02-02T07:30:28.221Z,54.97
2019-02-02T07:32:25.359Z,53.07
2019-02-02T07:34:30.974Z,48.87
2019-02-02T07:36:35.768Z,50.33
2019-02-02T07:38:46.461Z,50.63
2019-02-02T07:40:51.281Z,44.10
2019-02-02T07:42:56.172Z,48.83
2019-02-02T07:45:01.196Z,51.23
2019-02-02T07:47:09.152Z,48.53
2019-02-02T07:49:12.835Z,48.13
2019-02-02T07:51:17.899Z,56.23
2019-02-02T07:53:23.199Z,48.37
2019-02-02T07:55:28.201Z,47.97
2019-02-02T07:57:33.129Z,52.03
2019-02-02T07:59:39.092Z,55.00
2019-02-02T08:01:44.612Z,46.60
2019-02-02T08:03:50.192Z,53.77
2019-02-02T08:05:55.405Z,51.43
2019-02-02T08:08:00.261Z,51.90
2019-02-02T08:10:07.160Z,52.20
2019-02-02T08:12:12.040Z,50.07
2019-02-02T08:14:16.826Z,54.13
2019-02-02T08:16:21.668Z,54.70
2019-02-02T08:18:26.716Z,54.00
2019-02-02T08:20:32.585Z,50.43
2019-02-02T08:22:37.784Z,57.90
2019-02-02T08:24:42.538Z,48.77
2019-02-02T08:26:47.246Z,50.57
2019-02-02T08:28:54.304Z,50.87
2019-02-02T08:30:59.668Z,48.93
2019-02-02T08:33:05.123Z,50.17
2019-02-02T08:35:10.147Z,56.63
2019-02-02T08:37:15.105Z,50.67
2019-02-02T08:39:28.961Z,48.60
2019-02-02T08:41:27.302Z,50.03
2019-02-02T08:43:32.239Z,50.03
2019-02-02T08:45:37.131Z,50.83
2019-02-02T08:47:41.929Z,47.13
2019-02-02T08:49:46.880Z,50.93
2019-02-02T08:51:56.632Z,48.83
2019-02-02T08:54:03.514Z,48.67
2019-02-02T08:56:08.833Z,51.23
2019-02-02T08:58:13.746Z,48.43
2019-02-02T09:00:21.607Z,50.47
2019-02-02T09:02:28.063Z,50.97
2019-02-02T09:04:32.991Z,54.60
2019-02-02T09:06:39.429Z,45.33
2019-02-02T09:08:46.335Z,47.80
2019-02-02T09:10:50.778Z,52.30
2019-02-02T09:12:55.587Z,46.33
2019-02-02T09:15:00.355Z,54.73
2019-02-02T09:17:05.348Z,42.53
2019-02-02T09:19:10.231Z,48.20
2019-02-02T09:21:14.958Z,44.20
2019-02-02T09:23:20.163Z,45.07
2019-02-02T09:25:25.627Z,42.73
2019-02-02T09:27:30.734Z,47.93
2019-02-02T09:29:35.790Z,44.97
2019-02-02T09:31:40.594Z,46.23
2019-02-02T09:33:45.391Z,43.50
2019-02-02T09:35:50.197Z,46.43
2019-02-02T09:37:55.223Z,50.80
2019-02-02T09:40:00.364Z,53.70
2019-02-02T09:42:05.264Z,41.73
2019-02-02T09:44:10.031Z,40.23
2019-02-02T09:46:14.752Z,44.23
2019-02-02T09:48:19.482Z,43.80
2019-02-02T09:50:25.022Z,43.13
2019-02-02T09:52:29.806Z,42.73
2019-02-02T09:54:34.559Z,41.40
2019-02-02T09:56:40.749Z,47.67
2019-02-02T09:58:45.527Z,47.20
2019-02-02T10:00:50.427Z,58.73
2019-02-02T10:02:55.412Z,57.43
2019-02-02T10:05:00.321Z,52.00
2019-02-02T10:07:05.580Z,46.97
2019-02-02T10:09:11.337Z,46.17
2019-02-02T10:11:16.201Z,48.20
2019-02-02T10:13:20.947Z,47.93
2019-02-02T10:15:26.124Z,44.47
2019-02-02T10:17:31.239Z,42.97
2019-02-02T10:19:36.039Z,45.30
2019-02-02T10:21:45.629Z,47.90
2019-02-02T10:23:50.700Z,41.30
2019-02-02T10:25:58.540Z,43.10
2019-02-02T10:28:04.647Z,48.73
2019-02-02T10:30:22.627Z,42.77
2019-02-02T10:32:27.598Z,48.80
2019-02-02T10:34:32.517Z,44.97
2019-02-02T10:36:37.459Z,45.90
2019-02-02T10:38:43.407Z,43.23
2019-02-02T10:40:48.631Z,41.20
2019-02-02T10:42:54.206Z,45.50
2019-02-02T10:44:59.169Z,39.70
2019-02-02T10:47:04.211Z,41.40
2019-02-02T10:49:09.228Z,41.60
2019-02-02T10:51:14.754Z,38.30
2019-02-02T10:53:31.045Z,35.03
2019-02-02T10:55:42.419Z,40.10
2019-02-02T10:57:47.717Z,37.27
2019-02-02T10:59:52.685Z,36.13
2019-02-02T11:01:57.749Z,37.70
2019-02-02T11:04:02.565Z,34.80
2019-02-02T11:06:07.732Z,40.10
2019-02-02T11:08:13.165Z,32.90
2019-02-02T11:10:23.070Z,36.50
2019-02-02T11:12:28.051Z,36.70
2019-02-02T11:14:32.929Z,34.93
2019-02-02T11:16:38.287Z,39.67
2019-02-02T11:18:43.700Z,37.40
2019-02-02T11:20:48.588Z,41.33
2019-02-02T11:22:55.490Z,43.30
2019-02-02T11:25:00.734Z,40.67
2019-02-02T11:27:07.173Z,38.23
2019-02-02T11:29:12.042Z,38.20
2019-02-02T11:31:17.042Z,39.80
2019-02-02T11:33:21.956Z,42.67
2019-02-02T11:35:26.814Z,43.80
2019-02-02T11:37:31.661Z,39.80
2019-02-02T11:39:36.429Z,40.97
2019-02-02T11:41:41.240Z,40.27
2019-02-02T11:43:46.138Z,38.97
2019-02-02T11:45:50.933Z,39.33
2019-02-02T11:47:55.912Z,42.13
2019-02-02T11:50:00.761Z,44.10
2019-02-02T11:52:05.603Z,39.60
2019-02-02T11:54:10.413Z,47.03
2019-02-02T11:56:15.706Z,43.57
2019-02-02T11:58:23.024Z,50.17
2019-02-02T12:00:36.254Z,48.30
2019-02-02T12:02:49.078Z,44.07
2019-02-02T12:04:47.537Z,44.63
2019-02-02T12:06:52.368Z,45.80
2019-02-02T12:08:57.539Z,47.63
2019-02-02T12:11:02.660Z,44.87
2019-02-02T12:13:07.807Z,46.73
2019-02-02T12:15:14.285Z,55.87
2019-02-02T12:17:19.138Z,51.07
2019-02-02T12:19:24.033Z,49.67
2019-02-02T12:21:29.001Z,46.60
2019-02-02T12:23:34.001Z,49.50
2019-02-02T12:25:39.360Z,49.60
2019-02-02T12:27:44.336Z,53.17
2019-02-02T12:29:49.375Z,51.17
2019-02-02T12:31:54.350Z,47.43
2019-02-02T12:33:59.167Z,51.33
2019-02-02T12:36:04.035Z,48.70
2019-02-02T12:38:09.202Z,51.70
2019-02-02T12:40:14.296Z,53.27
2019-02-02T12:42:19.376Z,53.43
2019-02-02T12:44:24.507Z,58.73
2019-02-02T12:46:29.869Z,58.43
2019-02-02T12:48:35.198Z,53.77
2019-02-02T12:50:40.044Z,50.77
2019-02-02T12:52:45.627Z,55.03
2019-02-02T12:54:51.021Z,51.30
2019-02-02T12:56:57.634Z,51.70
2019-02-02T12:59:02.419Z,58.80
2019-02-02T13:01:07.435Z,54.50
2019-02-02T13:03:12.240Z,49.07
2019-02-02T13:05:18.268Z,54.60
2019-02-02T13:07:23.260Z,49.37
2019-02-02T13:09:28.019Z,53.07
2019-02-02T13:11:33.076Z,55.73
2019-02-02T13:13:38.122Z,53.80
2019-02-02T13:15:43.575Z,53.17
2019-02-02T13:17:48.583Z,52.23
2019-02-02T13:20:05.541Z,51.40
2019-02-02T13:22:11.628Z,51.03
2019-02-02T13:24:16.477Z,48.93
2019-02-02T13:26:21.586Z,57.33
2019-02-02T13:28:26.757Z,51.83
2019-02-02T13:30:33.926Z,56.27
2019-02-02T13:32:49.144Z,53.00
2019-02-02T13:34:45.507Z,51.10
2019-02-02T13:36:50.231Z,49.53
2019-02-02T13:38:55.135Z,54.23
2019-02-02T13:40:59.895Z,52.20
2019-02-02T13:43:04.816Z,50.90
2019-02-02T13:45:10.258Z,51.40
2019-02-02T13:47:15.233Z,49.17
2019-02-02T13:49:20.780Z,56.33
2019-02-02T13:51:25.620Z,53.40
2019-02-02T13:53:30.494Z,56.87
2019-02-02T13:55:35.267Z,51.17
2019-02-02T13:57:40.200Z,47.10
2019-02-02T13:59:45.290Z,47.43
2019-02-02T14:01:50.237Z,50.00
2019-02-02T14:03:55.074Z,44.90
2019-02-02T14:06:00.074Z,46.40
2019-02-02T14:08:05.715Z,48.40
2019-02-02T14:10:13.323Z,49.10
2019-02-02T14:12:18.192Z,49.67
2019-02-02T14:14:23.284Z,49.67
2019-02-02T14:16:28.323Z,57.03
2019-02-02T14:18:33.184Z,50.17
2019-02-02T14:20:38.088Z,50.37
2019-02-02T14:22:44.247Z,48.07
2019-02-02T14:24:49.014Z,46.23
2019-02-02T14:26:53.921Z,43.60
2019-02-02T14:28:58.709Z,43.43
2019-02-02T14:31:03.551Z,42.77
2019-02-02T14:33:14.406Z,44.57
2019-02-02T14:35:15.902Z,45.20
2019-02-02T14:37:20.801Z,40.43
2019-02-02T14:39:25.600Z,41.30
2019-02-02T14:41:30.446Z,43.07
2019-02-02T14:43:35.623Z,46.33
2019-02-02T14:45:40.396Z,36.77
2019-02-02T14:47:45.234Z,39.90
2019-02-02T14:49:50.059Z,37.00
2019-02-02T14:51:54.942Z,41.40
2019-02-02T14:53:59.776Z,33.60
2019-02-02T14:56:04.763Z,36.70
2019-02-02T14:58:09.584Z,35.07
2019-02-02T15:00:19.808Z,34.17
2019-02-02T15:02:24.608Z,34.10
2019-02-02T15:04:29.434Z,32.80
2019-02-02T15:06:34.177Z,31.87
2019-02-02T15:08:39.217Z,31.10
2019-02-02T15:10:44.072Z,29.17
2019-02-02T15:12:48.879Z,30.20
2019-02-02T15:14:53.647Z,35.77
2019-02-02T15:16:58.454Z,31.97
2019-02-02T15:19:03.256Z,34.87
2019-02-02T15:21:08.379Z,35.60
2019-02-02T15:23:13.399Z,32.70
2019-02-02T15:25:18.221Z,35.97
2019-02-02T15:27:22.986Z,34.57
2019-02-02T15:29:27.765Z,36.37
2019-02-02T15:31:36.996Z,36.23
2019-02-02T15:33:41.957Z,37.83
2019-02-02T15:35:46.738Z,35.30
2019-02-02T15:37:51.874Z,38.20
2019-02-02T15:39:56.740Z,41.37
2019-02-02T15:42:01.492Z,42.20
2019-02-02T15:44:06.925Z,42.93
2019-02-02T15:46:11.943Z,38.23
2019-02-02T15:48:17.005Z,43.57
2019-02-02T15:50:22.461Z,48.10
2019-02-02T15:52:30.498Z,42.00
2019-02-02T15:54:35.487Z,45.90
2019-02-02T15:56:40.589Z,42.67
2019-02-02T15:58:45.700Z,44.20
2019-02-02T16:00:50.624Z,55.07
2019-02-02T16:02:59.035Z,54.03
2019-02-02T16:05:04.658Z,57.70
2019-02-02T16:07:10.394Z,64.30
2019-02-02T16:09:16.599Z,51.93
2019-02-02T16:11:23.336Z,51.70
2019-02-02T16:13:33.192Z,49.37
2019-02-02T16:15:39.603Z,53.83
2019-02-02T16:17:45.033Z,53.23
2019-02-02T16:19:51.373Z,56.70
2019-02-02T16:21:56.429Z,52.17
2019-02-02T16:24:02.315Z,51.00
2019-02-02T16:26:07.300Z,54.70
2019-02-02T16:28:12.659Z,55.57
2019-02-02T16:30:20.436Z,54.80
2019-02-02T16:32:25.525Z,51.47
2019-02-02T16:34:34.183Z,56.20
2019-02-02T16:36:39.182Z,52.70
2019-02-02T16:38:44.090Z,57.00
2019-02-02T16:40:48.930Z,48.00
2019-02-02T16:42:54.143Z,54.57
2019-02-02T16:44:59.086Z,57.97
2019-02-02T16:47:04.707Z,53.37
2019-02-02T16:49:10.521Z,53.23
2019-02-02T16:51:16.285Z,54.23
2019-02-02T16:53:21.900Z,72.27
2019-02-02T16:55:27.337Z,66.53
2019-02-02T16:57:32.173Z,65.33
2019-02-02T16:59:36.973Z,60.73
2019-02-02T17:01:41.834Z,53.73
2019-02-02T17:03:46.634Z,62.13
2019-02-02T17:05:51.533Z,58.30
2019-02-02T17:07:56.430Z,62.03
2019-02-02T17:10:01.189Z,85.27
2019-02-02T17:12:06.187Z,88.40
2019-02-02T17:14:11.100Z,67.83
2019-02-02T17:16:15.910Z,71.80
2019-02-02T17:18:20.840Z,63.87
2019-02-02T17:20:28.023Z,67.93
2019-02-02T17:22:32.856Z,74.90
2019-02-02T17:24:38.074Z,68.03
2019-02-02T17:26:42.942Z,68.07
2019-02-02T17:28:47.841Z,128.73
2019-02-02T17:30:52.718Z,87.83
2019-02-02T17:32:59.928Z,80.10
2019-02-02T17:35:05.273Z,74.73
2019-02-02T17:37:10.045Z,93.43
2019-02-02T17:39:15.141Z,97.83
2019-02-02T17:41:20.020Z,104.20
2019-02-02T17:43:25.171Z,76.00
2019-02-02T17:45:30.059Z,88.07
2019-02-02T17:47:35.226Z,73.20
2019-02-02T17:49:40.121Z,68.23
2019-02-02T17:51:44.919Z,70.20
2019-02-02T17:53:49.817Z,67.67
2019-02-02T17:55:54.867Z,59.47
2019-02-02T17:58:00.845Z,61.87
2019-02-02T18:00:07.339Z,64.20
2019-02-02T18:02:13.156Z,61.27
2019-02-02T18:04:18.256Z,63.13
2019-02-02T18:06:23.503Z,59.97
2019-02-02T18:08:33.015Z,65.63
2019-02-02T18:10:38.165Z,62.33
2019-02-02T18:12:44.221Z,60.17
2019-02-02T18:14:49.036Z,66.10
2019-02-02T18:16:56.669Z,58.90
2019-02-02T18:19:01.940Z,62.53
2019-02-02T18:21:07.312Z,61.40
2019-02-02T18:23:12.629Z,63.07
2019-02-02T18:25:17.400Z,58.97
2019-02-02T18:27:22.169Z,54.50
2019-02-02T18:29:29.337Z,59.37
2019-02-02T18:31:36.031Z,60.10
2019-02-02T18:33:41.111Z,56.37
2019-02-02T18:35:45.942Z,58.47
2019-02-02T18:37:50.678Z,62.67
2019-02-02T18:39:55.489Z,56.70
2019-02-02T18:42:00.682Z,59.87
2019-02-02T18:44:05.785Z,62.37
2019-02-02T18:46:10.737Z,62.17
2019-02-02T18:48:15.916Z,62.23
2019-02-02T18:50:20.809Z,57.90
2019-02-02T18:52:26.111Z,56.30
2019-02-02T18:54:36.127Z,57.97
2019-02-02T18:56:41.117Z,56.13
2019-02-02T18:58:45.993Z,55.73
2019-02-02T19:00:50.809Z,54.43
2019-02-02T19:02:55.625Z,57.13
2019-02-02T19:05:03.989Z,55.43
2019-02-02T19:07:07.246Z,59.33
2019-02-02T19:09:12.086Z,57.13
2019-02-02T19:11:16.946Z,59.93
2019-02-02T19:13:22.244Z,59.50
2019-02-02T19:15:27.211Z,61.27
2019-02-02T19:17:32.446Z,54.67
2019-02-02T19:19:37.211Z,62.23
2019-02-02T19:21:42.439Z,60.50
2019-02-02T19:23:47.636Z,65.47
2019-02-02T19:25:52.417Z,58.13
2019-02-02T19:27:57.209Z,68.17
2019-02-02T19:30:02.096Z,71.33
2019-02-02T19:32:07.137Z,78.17
2019-02-02T19:34:12.211Z,75.43
2019-02-02T19:36:17.049Z,67.00
2019-02-02T19:38:22.330Z,64.73
2019-02-02T19:40:27.490Z,78.87
2019-02-02T19:42:32.353Z,72.10
2019-02-02T19:44:40.001Z,74.20
2019-02-02T19:46:44.810Z,61.77
2019-02-02T19:48:49.640Z,71.23
2019-02-02T19:50:54.597Z,70.77
2019-02-02T19:52:59.826Z,73.00
2019-02-02T19:55:14.464Z,66.43
2019-02-02T19:57:11.893Z,63.70
2019-02-02T19:59:17.201Z,72.40
2019-02-02T20:01:23.516Z,69.93
2019-02-02T20:03:28.655Z,66.97
2019-02-02T20:05:33.554Z,65.97
2019-02-02T20:07:40.583Z,83.20
2019-02-02T20:09:45.731Z,75.30
2019-02-02T20:11:50.954Z,78.23
2019-02-02T20:13:56.270Z,85.37
2019-02-02T20:16:04.006Z,65.20
2019-02-02T20:18:10.236Z,78.37
2019-02-02T20:20:17.033Z,80.67
2019-02-02T20:22:22.036Z,79.53
2019-02-02T20:24:27.397Z,81.50
2019-02-02T20:26:32.434Z,86.33
2019-02-02T20:28:37.748Z,81.33
2019-02-02T20:30:43.059Z,75.43
2019-02-02T20:32:48.156Z,84.50
2019-02-02T20:34:53.586Z,83.20
2019-02-02T20:36:58.629Z,90.50
2019-02-02T20:39:04.413Z,111.93
2019-02-02T20:41:10.337Z,106.43
2019-02-02T20:43:15.325Z,96.67
2019-02-02T20:45:22.782Z,85.10
2019-02-02T20:47:27.704Z,84.57
2019-02-02T20:49:34.637Z,82.23
2019-02-02T20:51:40.050Z,84.07
2019-02-02T20:53:45.421Z,78.00
2019-02-02T20:55:50.355Z,86.23
2019-02-02T20:57:55.207Z,83.30
2019-02-02T21:00:00.357Z,91.10
2019-02-02T21:02:05.768Z,98.63
2019-02-02T21:04:10.704Z,87.50
2019-02-02T21:06:15.942Z,90.23
2019-02-02T21:08:20.853Z,81.73
2019-02-02T21:10:26.271Z,81.43
2019-02-02T21:12:31.243Z,88.70
2019-02-02T21:14:36.782Z,82.47
2019-02-02T21:16:41.748Z,85.57
2019-02-02T21:18:46.693Z,80.63
2019-02-02T21:20:51.823Z,100.93
2019-02-02T21:22:56.837Z,97.23
2019-02-02T21:25:01.966Z,83.17
2019-02-02T21:27:07.006Z,82.10
2019-02-02T21:29:11.847Z,89.73
2019-02-02T21:31:17.035Z,87.50
2019-02-02T21:33:22.176Z,95.27
2019-02-02T21:35:27.156Z,84.93
2019-02-02T21:37:32.008Z,92.83
2019-02-02T21:39:36.787Z,98.47
2019-02-02T21:41:41.552Z,100.60
2019-02-02T21:43:46.473Z,95.73
2019-02-02T21:45:58.919Z,101.07
2019-02-02T21:47:59.488Z,110.50
2019-02-02T21:50:05.206Z,103.17
2019-02-02T21:52:09.972Z,103.53
2019-02-02T21:54:14.897Z,93.17
2019-02-02T21:56:19.712Z,94.60
2019-02-02T21:58:24.723Z,93.83
2019-02-02T22:00:38.147Z,93.10
2019-02-02T22:02:42.910Z,94.27
2019-02-02T22:04:48.079Z,93.20
2019-02-02T22:06:53.625Z,81.60
2019-02-02T22:08:58.726Z,99.43
2019-02-02T22:11:04.069Z,89.50
2019-02-02T22:13:11.962Z,87.13
2019-02-02T22:15:19.388Z,85.23
2019-02-02T22:17:25.941Z,81.70
2019-02-02T22:19:30.865Z,101.40
2019-02-02T22:21:35.979Z,94.23
2019-02-02T22:23:41.071Z,85.20
2019-02-02T22:25:46.018Z,95.30
2019-02-02T22:27:50.964Z,84.83
2019-02-02T22:29:55.813Z,79.80
2019-02-02T22:32:00.737Z,75.43
2019-02-02T22:34:06.497Z,81.57
2019-02-02T22:36:11.788Z,88.70
2019-02-02T22:38:16.603Z,85.60
2019-02-02T22:40:22.939Z,92.43
2019-02-02T22:42:27.743Z,80.13
2019-02-02T22:44:32.786Z,89.20
2019-02-02T22:46:38.009Z,93.00
2019-02-02T22:48:42.818Z,93.27
2019-02-02T22:50:48.090Z,90.20
2019-02-02T22:52:53.013Z,89.23
2019-02-02T22:54:58.233Z,81.97
2019-02-02T22:57:03.195Z,87.10
2019-02-02T22:59:08.309Z,90.67
2019-02-02T23:01:22.294Z,83.43
2019-02-02T23:03:37.292Z,84.87
2019-02-02T23:06:23.902Z,78.03
2019-02-02T23:09:08.831Z,79.60
2019-02-02T23:11:50.207Z,93.20
2019-02-02T23:14:47.045Z,84.33
2019-02-02T23:16:52.146Z,90.77
2019-02-02T23:18:57.327Z,87.03
2019-02-02T23:21:02.119Z,95.93
2019-02-02T23:23:09.231Z,80.77
2019-02-02T23:25:14.574Z,81.70
2019-02-02T23:27:19.352Z,77.07
2019-02-02T23:29:24.173Z,84.27
2019-02-02T23:31:28.987Z,86.87
2019-02-02T23:33:33.805Z,85.70
2019-02-02T23:35:38.768Z,78.27
2019-02-02T23:37:43.640Z,83.30
2019-02-02T23:39:48.541Z,82.97
2019-02-02T23:41:53.446Z,78.07
2019-02-02T23:43:58.588Z,82.10
2019-02-02T23:46:03.330Z,90.60
2019-02-02T23:48:08.782Z,81.73
2019-02-02T23:50:13.681Z,87.30
2019-02-02T23:52:18.449Z,93.80
2019-02-02T23:54:23.281Z,88.70
2019-02-02T23:56:28.539Z,89.87
2019-02-02T23:58:33.391Z,90.63
